sensor_id;sensor_type;location;lat;lon;timestamp;P1;durP1;ratioP1;P2;durP2;ratioP2
11747;SDS011;5931;48.832;9.072;2023-09-18T00:00:46;3.90;;;2.80;;
11747;SDS011;5931;48.832;9.072;2023-09-18T00:03:15;4.93;;;3.47;;
11747;SDS011;5931;48.832;9.072;2023-09-18T00:05:42;4.10;;;3.03;;
11747;SDS011;5931;48.832;9.072;2023-09-18T00:08:08;5.63;;;3.20;;
11747;SDS011;5931;48.832;9.072;2023-09-18T00:10:34;3.50;;;2.80;;
11747;SDS011;5931;48.832;9.072;2023-09-18T00:13:00;10.57;;;3.47;;
11747;SDS011;5931;48.832;9.072;2023-09-18T00:15:26;4.30;;;3.47;;
11747;SDS011;5931;48.832;9.072;2023-09-18T00:17:52;4.13;;;3.10;;
11747;SDS011;5931;48.832;9.072;2023-09-18T00:20:17;3.20;;;2.90;;
11747;SDS011;5931;48.832;9.072;2023-09-18T00:22:44;5.70;;;2.67;;
11747;SDS011;5931;48.832;9.072;2023-09-18T00:25:09;5.97;;;3.63;;
11747;SDS011;5931;48.832;9.072;2023-09-18T00:27:35;5.60;;;3.10;;
11747;SDS011;5931;48.832;9.072;2023-09-18T00:30:03;4.17;;;2.87;;
11747;SDS011;5931;48.832;9.072;2023-09-18T00:32:30;6.40;;;2.67;;
11747;SDS011;5931;48.832;9.072;2023-09-18T00:34:56;3.97;;;3.00;;
11747;SDS011;5931;48.832;9.072;2023-09-18T00:37:22;5.93;;;2.80;;
11747;SDS011;5931;48.832;9.072;2023-09-18T00:39:49;4.70;;;2.40;;
11747;SDS011;5931;48.832;9.072;2023-09-18T00:42:15;3.57;;;3.00;;
11747;SDS011;5931;48.832;9.072;2023-09-18T00:44:43;6.63;;;3.37;;
11747;SDS011;5931;48.832;9.072;2023-09-18T00:47:09;5.50;;;3.00;;
11747;SDS011;5931;48.832;9.072;2023-09-18T00:49:36;4.80;;;3.43;;
11747;SDS011;5931;48.832;9.072;2023-09-18T00:52:05;3.93;;;3.00;;
11747;SDS011;5931;48.832;9.072;2023-09-18T00:54:32;3.90;;;3.10;;
11747;SDS011;5931;48.832;9.072;2023-09-18T00:56:59;5.30;;;2.63;;
11747;SDS011;5931;48.832;9.072;2023-09-18T00:59:25;6.60;;;2.60;;
11747;SDS011;5931;48.832;9.072;2023-09-18T01:01:51;4.20;;;2.87;;
11747;SDS011;5931;48.832;9.072;2023-09-18T01:04:17;4.50;;;3.47;;
11747;SDS011;5931;48.832;9.072;2023-09-18T01:06:44;5.13;;;3.27;;
11747;SDS011;5931;48.832;9.072;2023-09-18T01:09:10;6.30;;;3.47;;
11747;SDS011;5931;48.832;9.072;2023-09-18T01:15:01;2.73;;;2.30;;
11747;SDS011;5931;48.832;9.072;2023-09-18T01:17:34;3.23;;;2.93;;
11747;SDS011;5931;48.832;9.072;2023-09-18T01:20:04;4.67;;;2.80;;
11747;SDS011;5931;48.832;9.072;2023-09-18T01:22:31;2.80;;;2.40;;
11747;SDS011;5931;48.832;9.072;2023-09-18T01:24:57;4.37;;;2.70;;
11747;SDS011;5931;48.832;9.072;2023-09-18T01:27:23;4.10;;;2.77;;
11747;SDS011;5931;48.832;9.072;2023-09-18T01:29:50;4.43;;;2.63;;
11747;SDS011;5931;48.832;9.072;2023-09-18T01:32:17;5.53;;;2.73;;
11747;SDS011;5931;48.832;9.072;2023-09-18T01:34:49;4.90;;;3.10;;
11747;SDS011;5931;48.832;9.072;2023-09-18T01:37:17;3.40;;;2.90;;
11747;SDS011;5931;48.832;9.072;2023-09-18T01:39:47;5.27;;;3.07;;
11747;SDS011;5931;48.832;9.072;2023-09-18T01:42:14;3.57;;;3.00;;
11747;SDS011;5931;48.832;9.072;2023-09-18T01:44:40;5.43;;;2.77;;
11747;SDS011;5931;48.832;9.072;2023-09-18T01:47:07;5.50;;;3.10;;
11747;SDS011;5931;48.832;9.072;2023-09-18T01:49:36;3.67;;;2.30;;
11747;SDS011;5931;48.832;9.072;2023-09-18T01:52:03;3.37;;;2.87;;
11747;SDS011;5931;48.832;9.072;2023-09-18T01:54:31;4.77;;;2.70;;
11747;SDS011;5931;48.832;9.072;2023-09-18T01:56:57;3.60;;;2.30;;
11747;SDS011;5931;48.832;9.072;2023-09-18T01:59:23;7.77;;;2.33;;
11747;SDS011;5931;48.832;9.072;2023-09-18T02:01:50;2.70;;;2.07;;
11747;SDS011;5931;48.832;9.072;2023-09-18T02:04:16;3.97;;;2.57;;
11747;SDS011;5931;48.832;9.072;2023-09-18T02:06:44;7.40;;;2.80;;
11747;SDS011;5931;48.832;9.072;2023-09-18T02:09:11;3.20;;;2.27;;
11747;SDS011;5931;48.832;9.072;2023-09-18T02:11:41;6.63;;;2.30;;
11747;SDS011;5931;48.832;9.072;2023-09-18T02:14:08;6.33;;;3.17;;
11747;SDS011;5931;48.832;9.072;2023-09-18T02:16:35;4.20;;;2.23;;
11747;SDS011;5931;48.832;9.072;2023-09-18T02:19:03;5.13;;;2.50;;
11747;SDS011;5931;48.832;9.072;2023-09-18T02:21:29;7.00;;;2.67;;
11747;SDS011;5931;48.832;9.072;2023-09-18T02:23:56;3.30;;;2.33;;
11747;SDS011;5931;48.832;9.072;2023-09-18T02:26:23;3.33;;;2.50;;
11747;SDS011;5931;48.832;9.072;2023-09-18T02:28:51;5.87;;;2.53;;
11747;SDS011;5931;48.832;9.072;2023-09-18T02:31:18;4.80;;;2.43;;
11747;SDS011;5931;48.832;9.072;2023-09-18T02:33:44;5.63;;;2.70;;
11747;SDS011;5931;48.832;9.072;2023-09-18T02:36:10;8.53;;;3.33;;
11747;SDS011;5931;48.832;9.072;2023-09-18T02:38:36;4.50;;;2.70;;
11747;SDS011;5931;48.832;9.072;2023-09-18T02:41:02;7.07;;;2.60;;
11747;SDS011;5931;48.832;9.072;2023-09-18T02:43:28;12.83;;;3.60;;
11747;SDS011;5931;48.832;9.072;2023-09-18T02:45:53;3.70;;;2.30;;
11747;SDS011;5931;48.832;9.072;2023-09-18T02:48:19;6.43;;;2.57;;
11747;SDS011;5931;48.832;9.072;2023-09-18T02:50:45;8.43;;;2.60;;
11747;SDS011;5931;48.832;9.072;2023-09-18T02:53:17;2.40;;;2.00;;
11747;SDS011;5931;48.832;9.072;2023-09-18T02:55:45;6.20;;;2.50;;
11747;SDS011;5931;48.832;9.072;2023-09-18T02:58:12;8.40;;;2.53;;
11747;SDS011;5931;48.832;9.072;2023-09-18T03:00:41;5.10;;;2.80;;
11747;SDS011;5931;48.832;9.072;2023-09-18T03:03:08;8.97;;;3.00;;
11747;SDS011;5931;48.832;9.072;2023-09-18T03:05:35;4.60;;;2.47;;
11747;SDS011;5931;48.832;9.072;2023-09-18T03:08:01;7.13;;;2.93;;
11747;SDS011;5931;48.832;9.072;2023-09-18T03:10:27;4.43;;;2.50;;
11747;SDS011;5931;48.832;9.072;2023-09-18T03:12:57;8.43;;;2.70;;
11747;SDS011;5931;48.832;9.072;2023-09-18T03:15:23;4.23;;;2.63;;
11747;SDS011;5931;48.832;9.072;2023-09-18T03:17:50;5.90;;;3.10;;
11747;SDS011;5931;48.832;9.072;2023-09-18T03:20:16;3.17;;;2.33;;
11747;SDS011;5931;48.832;9.072;2023-09-18T03:22:41;5.30;;;2.40;;
11747;SDS011;5931;48.832;9.072;2023-09-18T03:25:07;4.20;;;2.40;;
11747;SDS011;5931;48.832;9.072;2023-09-18T03:27:33;7.50;;;2.73;;
11747;SDS011;5931;48.832;9.072;2023-09-18T03:29:59;3.20;;;2.23;;
11747;SDS011;5931;48.832;9.072;2023-09-18T03:32:24;4.07;;;2.70;;
11747;SDS011;5931;48.832;9.072;2023-09-18T03:34:50;6.83;;;2.87;;
11747;SDS011;5931;48.832;9.072;2023-09-18T03:37:16;5.63;;;3.10;;
11747;SDS011;5931;48.832;9.072;2023-09-18T03:39:42;7.63;;;2.90;;
11747;SDS011;5931;48.832;9.072;2023-09-18T03:42:08;9.60;;;3.00;;
11747;SDS011;5931;48.832;9.072;2023-09-18T03:44:33;7.20;;;2.70;;
11747;SDS011;5931;48.832;9.072;2023-09-18T03:46:59;4.20;;;2.77;;
11747;SDS011;5931;48.832;9.072;2023-09-18T03:49:24;6.03;;;2.57;;
11747;SDS011;5931;48.832;9.072;2023-09-18T03:51:51;3.97;;;2.67;;
11747;SDS011;5931;48.832;9.072;2023-09-18T03:54:17;3.00;;;2.33;;
11747;SDS011;5931;48.832;9.072;2023-09-18T03:56:42;3.63;;;2.57;;
11747;SDS011;5931;48.832;9.072;2023-09-18T03:59:08;5.83;;;2.83;;
11747;SDS011;5931;48.832;9.072;2023-09-18T04:01:34;4.07;;;2.40;;
11747;SDS011;5931;48.832;9.072;2023-09-18T04:04:00;7.47;;;3.30;;
11747;SDS011;5931;48.832;9.072;2023-09-18T04:06:32;6.33;;;3.30;;
11747;SDS011;5931;48.832;9.072;2023-09-18T04:09:01;3.90;;;2.40;;
11747;SDS011;5931;48.832;9.072;2023-09-18T04:11:27;3.43;;;2.50;;
11747;SDS011;5931;48.832;9.072;2023-09-18T04:13:53;3.33;;;2.20;;
11747;SDS011;5931;48.832;9.072;2023-09-18T04:16:19;5.63;;;3.27;;
11747;SDS011;5931;48.832;9.072;2023-09-18T04:18:44;3.27;;;2.50;;
11747;SDS011;5931;48.832;9.072;2023-09-18T04:21:10;7.60;;;2.97;;
11747;SDS011;5931;48.832;9.072;2023-09-18T04:23:36;5.63;;;3.03;;
11747;SDS011;5931;48.832;9.072;2023-09-18T04:26:02;6.00;;;2.83;;
11747;SDS011;5931;48.832;9.072;2023-09-18T04:28:27;9.23;;;3.40;;
11747;SDS011;5931;48.832;9.072;2023-09-18T04:30:54;3.90;;;2.40;;
11747;SDS011;5931;48.832;9.072;2023-09-18T04:33:20;6.93;;;2.90;;
11747;SDS011;5931;48.832;9.072;2023-09-18T04:35:46;7.07;;;2.97;;
11747;SDS011;5931;48.832;9.072;2023-09-18T04:38:13;8.33;;;3.70;;
11747;SDS011;5931;48.832;9.072;2023-09-18T04:40:40;6.50;;;3.47;;
11747;SDS011;5931;48.832;9.072;2023-09-18T04:43:06;6.03;;;3.20;;
11747;SDS011;5931;48.832;9.072;2023-09-18T04:45:32;4.43;;;3.23;;
11747;SDS011;5931;48.832;9.072;2023-09-18T04:47:58;5.20;;;2.93;;
11747;SDS011;5931;48.832;9.072;2023-09-18T04:50:23;8.67;;;3.20;;
11747;SDS011;5931;48.832;9.072;2023-09-18T04:52:52;6.50;;;2.63;;
11747;SDS011;5931;48.832;9.072;2023-09-18T04:55:19;5.63;;;2.90;;
11747;SDS011;5931;48.832;9.072;2023-09-18T04:57:46;6.23;;;3.80;;
11747;SDS011;5931;48.832;9.072;2023-09-18T05:00:12;5.70;;;3.10;;
11747;SDS011;5931;48.832;9.072;2023-09-18T05:02:39;7.93;;;3.77;;
11747;SDS011;5931;48.832;9.072;2023-09-18T05:05:06;6.10;;;3.50;;
11747;SDS011;5931;48.832;9.072;2023-09-18T05:07:34;8.30;;;3.30;;
11747;SDS011;5931;48.832;9.072;2023-09-18T05:10:00;5.43;;;3.13;;
11747;SDS011;5931;48.832;9.072;2023-09-18T05:12:25;8.35;;;3.25;;
11747;SDS011;5931;48.832;9.072;2023-09-18T05:14:51;9.33;;;3.40;;
11747;SDS011;5931;48.832;9.072;2023-09-18T05:17:17;3.33;;;2.60;;
11747;SDS011;5931;48.832;9.072;2023-09-18T05:19:43;4.50;;;2.90;;
11747;SDS011;5931;48.832;9.072;2023-09-18T05:22:09;6.37;;;3.80;;
11747;SDS011;5931;48.832;9.072;2023-09-18T05:24:39;6.05;;;3.10;;
11747;SDS011;5931;48.832;9.072;2023-09-18T05:27:05;5.37;;;3.37;;
11747;SDS011;5931;48.832;9.072;2023-09-18T05:29:32;5.07;;;3.30;;
11747;SDS011;5931;48.832;9.072;2023-09-18T05:32:00;6.70;;;2.63;;
11747;SDS011;5931;48.832;9.072;2023-09-18T05:34:25;3.67;;;2.87;;
11747;SDS011;5931;48.832;9.072;2023-09-18T05:36:51;3.20;;;2.43;;
11747;SDS011;5931;48.832;9.072;2023-09-18T05:39:17;3.30;;;2.70;;
11747;SDS011;5931;48.832;9.072;2023-09-18T05:41:43;5.43;;;2.77;;
11747;SDS011;5931;48.832;9.072;2023-09-18T05:44:09;6.60;;;2.70;;
11747;SDS011;5931;48.832;9.072;2023-09-18T05:46:35;5.60;;;3.10;;
11747;SDS011;5931;48.832;9.072;2023-09-18T05:49:01;11.00;;;3.30;;
11747;SDS011;5931;48.832;9.072;2023-09-18T05:51:27;5.35;;;2.90;;
11747;SDS011;5931;48.832;9.072;2023-09-18T05:53:53;4.70;;;2.77;;
11747;SDS011;5931;48.832;9.072;2023-09-18T05:56:19;6.10;;;2.90;;
11747;SDS011;5931;48.832;9.072;2023-09-18T05:58:45;3.43;;;2.20;;
11747;SDS011;5931;48.832;9.072;2023-09-18T06:01:10;10.23;;;2.67;;
11747;SDS011;5931;48.832;9.072;2023-09-18T06:03:36;5.30;;;2.33;;
11747;SDS011;5931;48.832;9.072;2023-09-18T06:06:02;3.80;;;2.03;;
11747;SDS011;5931;48.832;9.072;2023-09-18T06:08:28;6.93;;;2.83;;
11747;SDS011;5931;48.832;9.072;2023-09-18T06:10:55;4.17;;;2.73;;
11747;SDS011;5931;48.832;9.072;2023-09-18T06:13:21;10.00;;;3.50;;
11747;SDS011;5931;48.832;9.072;2023-09-18T06:15:49;4.53;;;2.13;;
11747;SDS011;5931;48.832;9.072;2023-09-18T06:18:15;3.77;;;2.37;;
11747;SDS011;5931;48.832;9.072;2023-09-18T06:20:41;3.70;;;2.50;;
11747;SDS011;5931;48.832;9.072;2023-09-18T06:23:08;4.73;;;2.30;;
11747;SDS011;5931;48.832;9.072;2023-09-18T06:25:34;2.93;;;2.03;;
11747;SDS011;5931;48.832;9.072;2023-09-18T06:28:00;3.43;;;1.80;;
11747;SDS011;5931;48.832;9.072;2023-09-18T06:30:28;2.90;;;1.70;;
11747;SDS011;5931;48.832;9.072;2023-09-18T06:32:56;3.63;;;1.90;;
11747;SDS011;5931;48.832;9.072;2023-09-18T06:35:22;8.10;;;2.00;;
11747;SDS011;5931;48.832;9.072;2023-09-18T06:37:47;2.33;;;1.73;;
11747;SDS011;5931;48.832;9.072;2023-09-18T06:40:13;2.27;;;1.60;;
11747;SDS011;5931;48.832;9.072;2023-09-18T06:42:39;2.07;;;1.77;;
11747;SDS011;5931;48.832;9.072;2023-09-18T06:45:05;4.90;;;1.80;;
11747;SDS011;5931;48.832;9.072;2023-09-18T06:47:34;10.60;;;1.93;;
11747;SDS011;5931;48.832;9.072;2023-09-18T06:50:00;3.37;;;1.50;;
11747;SDS011;5931;48.832;9.072;2023-09-18T06:52:28;3.77;;;1.87;;
11747;SDS011;5931;48.832;9.072;2023-09-18T06:54:54;2.87;;;2.00;;
11747;SDS011;5931;48.832;9.072;2023-09-18T06:57:19;6.20;;;1.70;;
11747;SDS011;5931;48.832;9.072;2023-09-18T06:59:46;2.20;;;1.20;;
11747;SDS011;5931;48.832;9.072;2023-09-18T07:02:12;1.97;;;1.47;;
11747;SDS011;5931;48.832;9.072;2023-09-18T07:04:40;3.10;;;1.57;;
11747;SDS011;5931;48.832;9.072;2023-09-18T07:07:10;2.73;;;1.30;;
11747;SDS011;5931;48.832;9.072;2023-09-18T07:09:37;2.30;;;1.53;;
11747;SDS011;5931;48.832;9.072;2023-09-18T07:12:03;5.43;;;1.83;;
11747;SDS011;5931;48.832;9.072;2023-09-18T07:14:29;6.70;;;1.50;;
11747;SDS011;5931;48.832;9.072;2023-09-18T07:16:56;1.83;;;1.50;;
11747;SDS011;5931;48.832;9.072;2023-09-18T07:19:21;3.43;;;1.33;;
11747;SDS011;5931;48.832;9.072;2023-09-18T07:21:47;3.47;;;1.77;;
11747;SDS011;5931;48.832;9.072;2023-09-18T07:24:13;2.90;;;1.60;;
11747;SDS011;5931;48.832;9.072;2023-09-18T07:26:43;2.60;;;1.57;;
11747;SDS011;5931;48.832;9.072;2023-09-18T07:29:10;2.00;;;1.40;;
11747;SDS011;5931;48.832;9.072;2023-09-18T07:31:35;2.30;;;1.30;;
11747;SDS011;5931;48.832;9.072;2023-09-18T07:34:01;6.53;;;1.67;;
11747;SDS011;5931;48.832;9.072;2023-09-18T07:36:29;1.70;;;1.33;;
11747;SDS011;5931;48.832;9.072;2023-09-18T07:38:55;1.50;;;1.30;;
11747;SDS011;5931;48.832;9.072;2023-09-18T07:41:21;1.83;;;1.43;;
11747;SDS011;5931;48.832;9.072;2023-09-18T07:43:47;2.57;;;1.27;;
11747;SDS011;5931;48.832;9.072;2023-09-18T07:46:13;3.63;;;1.30;;
11747;SDS011;5931;48.832;9.072;2023-09-18T07:48:39;1.40;;;1.10;;
11747;SDS011;5931;48.832;9.072;2023-09-18T07:51:04;1.97;;;1.20;;
11747;SDS011;5931;48.832;9.072;2023-09-18T07:53:30;4.70;;;1.50;;
11747;SDS011;5931;48.832;9.072;2023-09-18T07:55:57;2.23;;;1.40;;
11747;SDS011;5931;48.832;9.072;2023-09-18T07:58:24;1.73;;;1.20;;
11747;SDS011;5931;48.832;9.072;2023-09-18T08:00:54;2.37;;;1.47;;
11747;SDS011;5931;48.832;9.072;2023-09-18T08:03:20;2.27;;;1.17;;
11747;SDS011;5931;48.832;9.072;2023-09-18T08:05:49;1.40;;;1.10;;
11747;SDS011;5931;48.832;9.072;2023-09-18T08:08:18;1.63;;;1.10;;
11747;SDS011;5931;48.832;9.072;2023-09-18T08:10:45;3.53;;;1.20;;
11747;SDS011;5931;48.832;9.072;2023-09-18T08:13:12;6.30;;;1.20;;
11747;SDS011;5931;48.832;9.072;2023-09-18T08:15:38;2.27;;;1.17;;
11747;SDS011;5931;48.832;9.072;2023-09-18T08:18:04;1.70;;;1.30;;
11747;SDS011;5931;48.832;9.072;2023-09-18T08:20:30;1.70;;;1.27;;
11747;SDS011;5931;48.832;9.072;2023-09-18T08:22:55;1.50;;;1.10;;
11747;SDS011;5931;48.832;9.072;2023-09-18T08:25:21;3.63;;;1.17;;
11747;SDS011;5931;48.832;9.072;2023-09-18T08:27:47;2.87;;;1.23;;
11747;SDS011;5931;48.832;9.072;2023-09-18T08:30:13;2.40;;;1.23;;
11747;SDS011;5931;48.832;9.072;2023-09-18T08:32:40;2.90;;;1.43;;
11747;SDS011;5931;48.832;9.072;2023-09-18T08:35:07;2.77;;;1.40;;
11747;SDS011;5931;48.832;9.072;2023-09-18T08:37:33;3.23;;;1.10;;
11747;SDS011;5931;48.832;9.072;2023-09-18T08:39:59;3.67;;;1.10;;
11747;SDS011;5931;48.832;9.072;2023-09-18T08:42:34;5.03;;;1.47;;
11747;SDS011;5931;48.832;9.072;2023-09-18T08:45:01;3.33;;;1.57;;
11747;SDS011;5931;48.832;9.072;2023-09-18T08:47:32;1.60;;;1.40;;
11747;SDS011;5931;48.832;9.072;2023-09-18T08:49:58;1.40;;;1.10;;
11747;SDS011;5931;48.832;9.072;2023-09-18T08:52:26;2.17;;;1.30;;
11747;SDS011;5931;48.832;9.072;2023-09-18T08:54:53;2.47;;;1.40;;
11747;SDS011;5931;48.832;9.072;2023-09-18T08:57:21;1.73;;;1.30;;
11747;SDS011;5931;48.832;9.072;2023-09-18T08:59:48;2.60;;;1.60;;
11747;SDS011;5931;48.832;9.072;2023-09-18T09:02:17;4.33;;;1.40;;
11747;SDS011;5931;48.832;9.072;2023-09-18T09:04:43;5.00;;;1.27;;
11747;SDS011;5931;48.832;9.072;2023-09-18T09:07:09;4.30;;;1.50;;
11747;SDS011;5931;48.832;9.072;2023-09-18T09:09:35;1.90;;;1.27;;
11747;SDS011;5931;48.832;9.072;2023-09-18T09:12:00;3.50;;;1.20;;
11747;SDS011;5931;48.832;9.072;2023-09-18T09:14:26;1.77;;;1.20;;
11747;SDS011;5931;48.832;9.072;2023-09-18T09:16:55;2.87;;;1.93;;
11747;SDS011;5931;48.832;9.072;2023-09-18T09:21:55;1.77;;;1.57;;
11747;SDS011;5931;48.832;9.072;2023-09-18T09:24:35;2.77;;;1.40;;
11747;SDS011;5931;48.832;9.072;2023-09-18T09:27:03;1.20;;;0.97;;
11747;SDS011;5931;48.832;9.072;2023-09-18T09:29:28;3.93;;;1.40;;
11747;SDS011;5931;48.832;9.072;2023-09-18T09:31:55;2.57;;;1.20;;
11747;SDS011;5931;48.832;9.072;2023-09-18T09:34:25;3.57;;;1.40;;
11747;SDS011;5931;48.832;9.072;2023-09-18T09:36:55;3.77;;;2.13;;
11747;SDS011;5931;48.832;9.072;2023-09-18T09:39:21;6.77;;;1.40;;
11747;SDS011;5931;48.832;9.072;2023-09-18T09:41:50;5.20;;;2.03;;
11747;SDS011;5931;48.832;9.072;2023-09-18T09:44:17;2.00;;;1.77;;
11747;SDS011;5931;48.832;9.072;2023-09-18T09:46:49;9.13;;;1.60;;
11747;SDS011;5931;48.832;9.072;2023-09-18T09:49:16;2.90;;;2.00;;
11747;SDS011;5931;48.832;9.072;2023-09-18T09:51:44;3.63;;;1.63;;
11747;SDS011;5931;48.832;9.072;2023-09-18T09:54:11;1.97;;;1.33;;
11747;SDS011;5931;48.832;9.072;2023-09-18T09:56:41;3.17;;;2.00;;
11747;SDS011;5931;48.832;9.072;2023-09-18T09:59:11;3.20;;;2.03;;
11747;SDS011;5931;48.832;9.072;2023-09-18T10:01:38;3.53;;;1.80;;
11747;SDS011;5931;48.832;9.072;2023-09-18T10:04:07;4.77;;;1.70;;
11747;SDS011;5931;48.832;9.072;2023-09-18T10:06:35;11.33;;;2.10;;
11747;SDS011;5931;48.832;9.072;2023-09-18T10:09:02;1.80;;;1.50;;
11747;SDS011;5931;48.832;9.072;2023-09-18T10:11:30;2.80;;;1.47;;
11747;SDS011;5931;48.832;9.072;2023-09-18T10:14:06;3.07;;;2.33;;
11747;SDS011;5931;48.832;9.072;2023-09-18T10:16:37;1.70;;;1.47;;
11747;SDS011;5931;48.832;9.072;2023-09-18T10:26:50;2.90;;;1.80;;
11747;SDS011;5931;48.832;9.072;2023-09-18T10:29:20;3.90;;;1.70;;
11747;SDS011;5931;48.832;9.072;2023-09-18T10:31:48;1.83;;;1.50;;
11747;SDS011;5931;48.832;9.072;2023-09-18T10:34:17;2.30;;;1.80;;
11747;SDS011;5931;48.832;9.072;2023-09-18T10:36:43;2.13;;;1.60;;
11747;SDS011;5931;48.832;9.072;2023-09-18T10:39:12;4.70;;;1.90;;
11747;SDS011;5931;48.832;9.072;2023-09-18T10:41:38;3.30;;;2.27;;
11747;SDS011;5931;48.832;9.072;2023-09-18T10:44:05;4.73;;;1.90;;
11747;SDS011;5931;48.832;9.072;2023-09-18T10:46:32;3.90;;;1.90;;
11747;SDS011;5931;48.832;9.072;2023-09-18T10:48:59;4.53;;;1.93;;
11747;SDS011;5931;48.832;9.072;2023-09-18T10:51:25;4.20;;;1.60;;
11747;SDS011;5931;48.832;9.072;2023-09-18T10:53:52;3.30;;;1.70;;
11747;SDS011;5931;48.832;9.072;2023-09-18T10:56:20;3.67;;;1.63;;
11747;SDS011;5931;48.832;9.072;2023-09-18T10:58:46;2.67;;;1.50;;
11747;SDS011;5931;48.832;9.072;2023-09-18T11:01:23;2.93;;;1.70;;
11747;SDS011;5931;48.832;9.072;2023-09-18T11:03:50;2.87;;;1.50;;
11747;SDS011;5931;48.832;9.072;2023-09-18T11:06:16;1.90;;;1.70;;
11747;SDS011;5931;48.832;9.072;2023-09-18T11:08:45;1.67;;;1.50;;
11747;SDS011;5931;48.832;9.072;2023-09-18T11:11:12;1.67;;;1.30;;
11747;SDS011;5931;48.832;9.072;2023-09-18T11:13:46;2.07;;;1.30;;
11747;SDS011;5931;48.832;9.072;2023-09-18T11:18:51;2.20;;;1.30;;
11747;SDS011;5931;48.832;9.072;2023-09-18T11:21:18;2.43;;;1.53;;
11747;SDS011;5931;48.832;9.072;2023-09-18T11:23:57;1.87;;;1.37;;
11747;SDS011;5931;48.832;9.072;2023-09-18T11:26:30;1.70;;;1.37;;
11747;SDS011;5931;48.832;9.072;2023-09-18T11:29:07;1.50;;;1.30;;
11747;SDS011;5931;48.832;9.072;2023-09-18T11:36:40;1.83;;;1.37;;
11747;SDS011;5931;48.832;9.072;2023-09-18T11:39:06;1.93;;;1.23;;
11747;SDS011;5931;48.832;9.072;2023-09-18T11:41:34;1.70;;;1.40;;
11747;SDS011;5931;48.832;9.072;2023-09-18T11:46:39;1.57;;;1.30;;
11747;SDS011;5931;48.832;9.072;2023-09-18T11:49:08;4.13;;;2.30;;
11747;SDS011;5931;48.832;9.072;2023-09-18T11:51:36;2.13;;;1.60;;
11747;SDS011;5931;48.832;9.072;2023-09-18T11:54:02;1.43;;;1.20;;
11747;SDS011;5931;48.832;9.072;2023-09-18T11:56:31;1.50;;;1.30;;
11747;SDS011;5931;48.832;9.072;2023-09-18T11:58:58;2.43;;;1.30;;
11747;SDS011;5931;48.832;9.072;2023-09-18T12:01:25;1.60;;;1.50;;
11747;SDS011;5931;48.832;9.072;2023-09-18T12:04:01;1.60;;;1.30;;
11747;SDS011;5931;48.832;9.072;2023-09-18T12:06:33;1.60;;;1.47;;
11747;SDS011;5931;48.832;9.072;2023-09-18T12:08:59;3.40;;;1.47;;
11747;SDS011;5931;48.832;9.072;2023-09-18T12:11:25;2.83;;;1.60;;
11747;SDS011;5931;48.832;9.072;2023-09-18T12:13:51;1.77;;;1.30;;
11747;SDS011;5931;48.832;9.072;2023-09-18T12:16:17;5.50;;;1.70;;
11747;SDS011;5931;48.832;9.072;2023-09-18T12:18:50;1.90;;;1.53;;
11747;SDS011;5931;48.832;9.072;2023-09-18T12:21:16;6.13;;;1.50;;
11747;SDS011;5931;48.832;9.072;2023-09-18T12:23:43;2.60;;;1.40;;
11747;SDS011;5931;48.832;9.072;2023-09-18T12:26:13;1.80;;;1.30;;
11747;SDS011;5931;48.832;9.072;2023-09-18T12:28:40;3.00;;;1.33;;
11747;SDS011;5931;48.832;9.072;2023-09-18T12:31:14;2.10;;;1.53;;
11747;SDS011;5931;48.832;9.072;2023-09-18T12:33:41;1.40;;;1.23;;
11747;SDS011;5931;48.832;9.072;2023-09-18T12:36:18;1.50;;;1.00;;
11747;SDS011;5931;48.832;9.072;2023-09-18T12:38:54;8.87;;;3.00;;
11747;SDS011;5931;48.832;9.072;2023-09-18T12:41:21;2.60;;;1.47;;
11747;SDS011;5931;48.832;9.072;2023-09-18T12:43:48;1.40;;;1.10;;
11747;SDS011;5931;48.832;9.072;2023-09-18T12:46:15;2.20;;;1.23;;
11747;SDS011;5931;48.832;9.072;2023-09-18T12:48:41;2.47;;;1.30;;
11747;SDS011;5931;48.832;9.072;2023-09-18T12:51:11;1.33;;;1.20;;
11747;SDS011;5931;48.832;9.072;2023-09-18T12:53:37;1.80;;;1.30;;
11747;SDS011;5931;48.832;9.072;2023-09-18T12:58:38;3.47;;;1.50;;
11747;SDS011;5931;48.832;9.072;2023-09-18T13:01:06;1.60;;;1.30;;
11747;SDS011;5931;48.832;9.072;2023-09-18T13:03:42;1.70;;;1.40;;
11747;SDS011;5931;48.832;9.072;2023-09-18T13:06:17;1.50;;;1.20;;
11747;SDS011;5931;48.832;9.072;2023-09-18T13:08:44;1.47;;;1.20;;
11747;SDS011;5931;48.832;9.072;2023-09-18T13:11:10;1.90;;;1.50;;
11747;SDS011;5931;48.832;9.072;2023-09-18T13:13:37;1.40;;;1.20;;
11747;SDS011;5931;48.832;9.072;2023-09-18T13:16:06;3.60;;;1.20;;
11747;SDS011;5931;48.832;9.072;2023-09-18T13:18:34;2.80;;;1.50;;
11747;SDS011;5931;48.832;9.072;2023-09-18T13:21:00;1.80;;;1.17;;
11747;SDS011;5931;48.832;9.072;2023-09-18T13:23:34;2.33;;;1.60;;
11747;SDS011;5931;48.832;9.072;2023-09-18T13:26:03;2.13;;;1.27;;
11747;SDS011;5931;48.832;9.072;2023-09-18T13:28:30;2.30;;;1.33;;
11747;SDS011;5931;48.832;9.072;2023-09-18T13:30:58;1.57;;;1.27;;
11747;SDS011;5931;48.832;9.072;2023-09-18T13:33:29;1.80;;;1.50;;
11747;SDS011;5931;48.832;9.072;2023-09-18T13:35:57;1.97;;;1.53;;
11747;SDS011;5931;48.832;9.072;2023-09-18T13:38:23;2.50;;;1.43;;
11747;SDS011;5931;48.832;9.072;2023-09-18T13:40:48;1.87;;;1.23;;
11747;SDS011;5931;48.832;9.072;2023-09-18T13:43:14;2.90;;;1.30;;
11747;SDS011;5931;48.832;9.072;2023-09-18T13:45:41;1.87;;;1.20;;
11747;SDS011;5931;48.832;9.072;2023-09-18T13:48:07;2.07;;;1.30;;
11747;SDS011;5931;48.832;9.072;2023-09-18T13:50:34;1.73;;;1.40;;
11747;SDS011;5931;48.832;9.072;2023-09-18T13:53:00;1.80;;;1.40;;
11747;SDS011;5931;48.832;9.072;2023-09-18T13:55:28;1.70;;;1.30;;
11747;SDS011;5931;48.832;9.072;2023-09-18T13:57:55;1.50;;;1.20;;
11747;SDS011;5931;48.832;9.072;2023-09-18T14:00:21;2.53;;;1.47;;
11747;SDS011;5931;48.832;9.072;2023-09-18T14:02:48;1.30;;;1.10;;
11747;SDS011;5931;48.832;9.072;2023-09-18T14:05:13;2.00;;;1.43;;
11747;SDS011;5931;48.832;9.072;2023-09-18T14:07:39;3.00;;;1.30;;
11747;SDS011;5931;48.832;9.072;2023-09-18T14:10:09;1.93;;;1.30;;
11747;SDS011;5931;48.832;9.072;2023-09-18T14:12:36;3.10;;;1.40;;
11747;SDS011;5931;48.832;9.072;2023-09-18T14:15:04;2.30;;;1.60;;
11747;SDS011;5931;48.832;9.072;2023-09-18T14:17:30;1.33;;;1.10;;
11747;SDS011;5931;48.832;9.072;2023-09-18T14:19:56;1.60;;;1.30;;
11747;SDS011;5931;48.832;9.072;2023-09-18T14:22:21;2.40;;;1.50;;
11747;SDS011;5931;48.832;9.072;2023-09-18T14:24:47;2.50;;;1.20;;
11747;SDS011;5931;48.832;9.072;2023-09-18T14:27:13;2.30;;;1.30;;
11747;SDS011;5931;48.832;9.072;2023-09-18T14:29:39;1.67;;;1.30;;
11747;SDS011;5931;48.832;9.072;2023-09-18T14:32:05;3.47;;;1.80;;
11747;SDS011;5931;48.832;9.072;2023-09-18T14:34:33;1.87;;;1.60;;
11747;SDS011;5931;48.832;9.072;2023-09-18T14:37:01;1.70;;;1.20;;
11747;SDS011;5931;48.832;9.072;2023-09-18T14:39:33;1.73;;;1.27;;
11747;SDS011;5931;48.832;9.072;2023-09-18T14:41:59;1.73;;;1.33;;
11747;SDS011;5931;48.832;9.072;2023-09-18T14:44:25;1.50;;;1.20;;
11747;SDS011;5931;48.832;9.072;2023-09-18T14:46:55;2.20;;;1.70;;
11747;SDS011;5931;48.832;9.072;2023-09-18T14:49:20;1.40;;;1.27;;
11747;SDS011;5931;48.832;9.072;2023-09-18T14:51:46;1.73;;;1.47;;
11747;SDS011;5931;48.832;9.072;2023-09-18T14:54:13;1.50;;;1.07;;
11747;SDS011;5931;48.832;9.072;2023-09-18T14:56:40;2.67;;;1.10;;
11747;SDS011;5931;48.832;9.072;2023-09-18T14:59:06;2.10;;;1.10;;
11747;SDS011;5931;48.832;9.072;2023-09-18T15:01:32;1.80;;;1.33;;
11747;SDS011;5931;48.832;9.072;2023-09-18T15:03:58;1.97;;;1.67;;
11747;SDS011;5931;48.832;9.072;2023-09-18T15:06:24;1.43;;;1.10;;
11747;SDS011;5931;48.832;9.072;2023-09-18T15:08:51;5.10;;;1.43;;
11747;SDS011;5931;48.832;9.072;2023-09-18T15:11:16;1.77;;;1.27;;
11747;SDS011;5931;48.832;9.072;2023-09-18T15:13:42;1.40;;;1.20;;
11747;SDS011;5931;48.832;9.072;2023-09-18T15:16:08;1.97;;;1.67;;
11747;SDS011;5931;48.832;9.072;2023-09-18T15:18:34;1.40;;;1.13;;
11747;SDS011;5931;48.832;9.072;2023-09-18T15:21:00;1.50;;;1.20;;
11747;SDS011;5931;48.832;9.072;2023-09-18T15:23:26;1.50;;;1.23;;
11747;SDS011;5931;48.832;9.072;2023-09-18T15:25:52;1.70;;;1.60;;